Latest Weather Observations for Mount Read

IDT60801

Issued at 10:02 am EDT Tuesday 3 March 2015 (issued every 30 minutes, with the page automatically refreshed every 10 minutes)

About weather observations | Map of weather stations | Latest weather observations for TAS | Other Formats
Station Details ID: 097085 Name: MOUNT READ Lat: -41.84 Lon: 145.54 Height: 1119.5 m
Data from the previous 72 hours. | See also: Recent months at Mount Read
Date/Time
EDT
Temp
°C
App
Temp
°C
Dew
Point
Rel
Hum
%
Delta-T
°C
Wind Press
QNH
hPa
Press
MSL
hPa
Rain
since 9 am
mm
Dir
 
Spd
km/h
Gust
km/h
Spd
kts
Gust
kts
03/10:00am 5.1 0.2 5.0 99 0.0 WSW 20 30 11 16 1015.1 1014.0 0.0
03/09:30am 4.6 -0.2 4.5 99 0.0 WSW 19 28 10 15 1015.0 1013.9 0.0
03/09:00am 4.6 -1.6 4.5 99 0.0 SW 26 35 14 19 1014.8 1013.7 4.4
03/08:30am 4.5 -0.9 4.4 99 0.0 SW 22 30 12 16 1014.7 1013.6 4.4
03/08:00am 4.6 -1.9 4.5 99 0.0 SW 28 37 15 20 1014.3 1013.2 4.4
03/07:30am 4.9 -1.6 4.8 99 0.0 SW 28 39 15 21 1014.1 1013.0 4.2
03/07:00am 5.0 -2.4 4.9 99 0.0 SW 33 44 18 24 1013.9 1012.8 4.2
03/06:30am 4.9 -2.9 4.8 99 0.0 WSW 35 50 19 27 1013.4 1012.3 4.2
03/06:00am 5.5 -2.2 5.4 99 0.0 WSW 35 44 19 24 1013.4 1012.3 4.0
03/05:30am 5.6 -0.7 5.5 99 0.0 WSW 28 37 15 20 1013.2 1012.1 3.4
03/05:00am 5.5 -1.8 5.4 99 0.0 WSW 33 43 18 23 1013.2 1012.1 3.4
03/04:30am 6.0 -0.3 5.9 99 0.0 WSW 28 43 15 23 1013.2 1012.1 3.0
03/04:00am 6.0 0.1 5.9 99 0.0 WNW 26 33 14 18 1013.1 1012.0 2.0
03/03:30am 6.0 -0.6 5.9 99 0.0 WNW 30 43 16 23 1012.8 1011.6 0.4
03/03:00am 5.8 1.2 5.7 99 0.0 NW 19 37 10 20 1013.2 1012.1 0.2
03/02:30am 5.8 -0.1 5.7 99 0.0 WNW 26 37 14 20 1013.5 1012.4 0.2
03/02:00am 5.8 -0.5 5.7 99 0.0 WNW 28 39 15 21 1013.8 1012.7 0.2
03/01:30am 5.7 -1.0 5.6 99 0.0 WNW 30 41 16 22 1014.1 1013.0 0.2
03/01:00am 5.6 0.8 5.5 99 0.0 WNW 20 33 11 18 1014.2 1013.1 0.2
03/12:30am 5.5 -1.2 5.4 99 0.0 WNW 30 39 16 21 1014.3 1013.2 0.0
03/12:00am 5.4 0.5 5.3 99 0.0 WNW 20 33 11 18 1014.8 1013.7 0.0
 
Date/Time
EDT
Temp
°C
App
Temp
°C
Dew
Point
Rel
Hum
%
Delta-T
°C
Wind Press
QNH
hPa
Press
MSL
hPa
Rain
since 9 am
mm
Dir
 
Spd
km/h
Gust
km/h
Spd
kts
Gust
kts
02/11:30pm 5.4 -0.6 5.3 99 0.0 NW 26 41 14 22 1014.8 1013.7 0.0
02/11:00pm 5.3 -0.7 5.2 99 0.0 WNW 26 33 14 18 1015.0 1013.9 0.0
02/10:30pm 5.1 -1.3 5.0 99 0.0 WNW 28 39 15 21 1015.0 1013.9 0.0
02/10:00pm 5.0 -0.3 4.9 99 0.0 NW 22 33 12 18 1015.2 1014.2 0.0
02/09:30pm 5.0 1.0 4.9 99 0.0 NW 15 32 8 17 1015.2 1014.2 0.0
02/09:00pm 4.7 -1.8 4.6 99 0.0 NW 28 37 15 20 1015.1 1014.0 0.0
02/08:31pm 4.7 -2.2 4.6 99 0.0 NW 30 50 16 27 1014.5 1013.5 0.0
02/08:30pm 4.8 -2.5 4.7 99 0.0 NW 32 50 17 27 1014.5 1013.5 0.0
02/08:24pm 4.7 -2.2 4.6 99 0.0 NW 30 50 16 27 1014.3 1013.2 0.0
02/08:00pm 5.0 -2.2 4.9 99 0.0 NW 32 39 17 21 1014.2 1013.1 0.0
02/07:30pm 5.5 -0.9 5.4 99 0.0 NW 28 39 15 21 1014.1 1013.0 0.0
02/07:00pm 5.8 -0.9 5.7 99 0.0 NW 30 35 16 19 1014.1 1013.0 0.0
02/06:30pm 6.6 0.9 6.5 99 0.0 NW 26 33 14 18 1013.7 1012.6 0.0
02/06:00pm 7.4 2.5 7.1 98 0.1 NNW 22 35 12 19 1013.7 1012.6 0.0
02/05:30pm 7.9 3.6 7.1 95 0.4 NNW 19 32 10 17 1013.8 1012.7 0.0
02/05:00pm 8.3 4.6 7.9 97 0.2 NNW 17 26 9 14 1013.5 1012.4 0.0
02/04:30pm 9.3 6.9 8.7 96 0.3 N 11 22 6 12 1014.0 1012.9 0.0
02/04:00pm 9.6 6.4 8.5 93 0.6 NNW 15 24 8 13 1014.3 1013.2 0.0
02/03:30pm 9.7 5.7 8.3 91 0.7 NNW 19 28 10 15 1014.7 1013.6 0.0
02/03:00pm 9.1 4.9 8.2 94 0.5 NNW 20 30 11 16 1015.0 1013.9 0.0
02/02:30pm 9.7 5.8 8.5 92 0.6 N 19 26 10 14 1015.2 1014.2 0.0
02/02:00pm 8.8 4.1 7.7 93 0.6 NNW 22 30 12 16 1015.6 1014.5 0.0
02/01:30pm 10.7 6.6 8.8 88 1.0 N 20 30 11 16 1015.7 1014.6 0.0
02/01:00pm 9.5 5.2 7.8 89 0.9 N 20 33 11 18 1016.1 1015.1 0.0
02/12:30pm 10.2 5.6 8.1 87 1.1 N 22 30 12 16 1016.3 1015.3 0.0
02/12:00pm 10.4 5.5 8.3 87 1.1 N 24 32 13 17 1016.4 1015.4 0.0
02/11:30am 9.2 4.1 7.5 89 0.9 N 24 30 13 16 1017.0 1016.0 0.0
02/11:00am 8.8 4.4 7.6 92 0.6 N 20 26 11 14 1017.1 1016.1 0.0
02/10:30am 7.5 0.9 6.1 91 0.7 NNE 30 37 16 20 1017.1 1016.1 0.0
02/10:00am 7.1 -0.1 5.7 91 0.7 NNE 33 41 18 22 1016.9 1015.9 0.0
02/09:30am 6.7 0.1 6.0 95 0.3 N 30 37 16 20 1016.7 1015.6 0.0
02/09:00am 6.3 -0.7 6.2 99 0.0 N 32 39 17 21 1016.7 1015.6 8.2
02/08:30am 5.8 -1.3 5.7 99 0.0 NNE 32 37 17 20 1016.6 1015.5 8.2
02/08:00am 5.8 -0.9 5.7 99 0.0 NNE 30 35 16 19 1016.8 1015.8 8.2
02/07:30am 4.9 -2.0 4.8 99 0.0 NNE 30 35 16 19 1016.4 1015.4 8.2
02/07:00am 4.3 -2.7 4.2 99 0.0 N 30 35 16 19 1016.2 1015.2 8.2
02/06:30am 4.6 -2.3 4.5 99 0.0 N 30 32 16 17 1016.0 1015.0 8.2
02/06:00am 4.4 -2.2 4.3 99 0.0 N 28 33 15 18 1015.9 1014.8 8.2
02/05:30am 3.9 -2.2 3.0 94 0.4 NNE 24 28 13 15 1016.0 1015.0 8.2
02/05:00am 4.0 -2.3 1.7 85 1.0 N 24 30 13 16 1016.3 1015.3 8.2
02/04:30am 3.4 -1.7 0.5 81 1.2 N 17 19 9 10 1016.7 1015.6 8.2
02/04:00am 3.4 -1.1 -0.4 76 1.5 N 13 15 7 8 1016.7 1015.6 8.2
02/03:30am 3.9 0.0 1.3 83 1.1 N 11 17 6 9 1016.7 1015.6 8.2
02/03:00am 1.1 -2.1 1.0 99 0.0 W 7 9 4 5 1017.0 1016.0 8.2
02/02:30am 0.9 -2.7 0.8 99 0.0 SW 9 13 5 7 1016.8 1015.8 8.2
02/02:00am 2.7 0.4 2.6 99 0.0 WNW 4 7 2 4 1016.4 1015.4 8.2
02/01:30am 5.2 2.8 5.1 99 0.0 N 7 11 4 6 1016.7 1015.6 8.2
02/01:00am 1.0 -2.9 0.9 99 0.0 ENE 11 17 6 9 1016.6 1015.5 8.2
02/12:30am 0.8 -3.2 0.7 99 0.0 S 11 13 6 7 1016.6 1015.5 8.2
02/12:00am 0.8 -3.5 0.7 99 0.0 S 13 15 7 8 1016.7 1015.6 8.2
 
Date/Time
EDT
Temp
°C
App
Temp
°C
Dew
Point
Rel
Hum
%
Delta-T
°C
Wind Press
QNH
hPa
Press
MSL
hPa
Rain
since 9 am
mm
Dir
 
Spd
km/h
Gust
km/h
Spd
kts
Gust
kts
01/11:30pm 1.0 -4.1 0.9 99 0.0 S 17 19 9 10 1016.8 1015.8 8.2
01/11:00pm 0.9 -3.8 0.8 99 0.0 S 15 17 8 9 1016.8 1015.8 8.2
01/10:30pm 1.3 -4.7 1.2 99 0.0 SSE 22 26 12 14 1016.8 1015.8 8.2
01/10:00pm 1.4 -5.7 1.3 99 0.0 S 28 35 15 19 1016.8 1015.8 8.2
01/09:30pm 1.8 -5.2 1.7 99 0.0 S 28 32 15 17 1016.6 1015.5 8.2
01/09:00pm 2.0 -4.6 1.9 99 0.0 SSW 26 33 14 18 1016.3 1015.3 8.2
01/08:30pm 2.1 -6.2 2.0 99 0.0 SSW 35 48 19 26 1015.6 1014.5 8.2
01/08:00pm 2.5 -5.8 2.4 99 0.0 SSW 35 43 19 23 1015.3 1014.3 8.2
01/07:30pm 2.9 -4.7 2.8 99 0.0 SSW 32 39 17 21 1015.3 1014.3 8.2
01/07:00pm 3.1 -4.1 3.0 99 0.0 SSW 30 39 16 21 1015.2 1014.2 8.2
01/06:30pm 3.5 -2.9 3.4 99 0.0 SSW 26 35 14 19 1014.9 1013.8 8.2
01/06:00pm 3.9 -2.8 3.8 99 0.0 SSW 28 41 15 22 1014.7 1013.6 8.2
01/05:30pm 4.1 -3.9 4.0 99 0.0 SSW 35 43 19 23 1014.0 1012.9 8.2
01/05:00pm 4.2 -4.1 4.1 99 0.0 SSW 37 44 20 24 1013.9 1012.8 8.2
01/04:30pm 4.4 -4.6 4.3 99 0.0 SSW 41 50 22 27 1013.8 1012.7 8.0
01/04:00pm 5.1 -4.2 5.0 99 0.0 SSW 43 54 23 29 1013.1 1012.0 8.0
01/03:30pm 5.1 -5.1 5.0 99 0.0 SSW 48 59 26 32 1012.7 1011.5 8.0
01/03:00pm 5.6 -3.2 5.5 99 0.0 SSW 41 54 22 29 1012.8 1011.6 7.0
01/02:30pm 5.7 -4.8 5.6 99 0.0 SSW 50 61 27 33 1012.1 1011.0 7.0
01/02:00pm 6.1 -3.0 6.0 99 0.0 SSW 43 54 23 29 1011.6 1010.5 6.4
01/01:30pm 5.8 -1.4 5.7 99 0.0 SSW 33 46 18 25 1011.6 1010.5 5.8
01/01:00pm 5.7 -1.6 5.6 99 0.0 SSW 33 50 18 27 1011.2 1010.0 5.4
01/12:57pm 6.1 -0.1 6.0 99 0.0 SSW 28 46 15 25 1011.3 1010.2 5.2
01/12:30pm 5.8 -2.2 5.7 99 0.0 SSW 37 48 20 26 1011.0 1009.8 4.0
01/12:00pm 5.2 -3.3 5.1 99 0.0 SSW 39 52 21 28 1010.5 1009.4 4.0
01/11:33am 6.0 -1.0 5.9 99 0.0 SSW 32 50 17 27 1010.4 1009.2 3.2
01/11:30am 5.7 -1.9 5.6 99 0.0 SSW 35 50 19 27 1010.2 1009.0 3.2
01/11:00am 5.4 -1.9 5.3 99 0.0 SSW 33 46 18 25 1009.8 1008.6 3.0
01/10:30am 5.6 -1.7 5.5 99 0.0 SSW 33 46 18 25 1009.3 1007.2 0.4
01/10:00am 5.2 -4.3 5.1 99 0.0 SSW 44 57 24 31 1008.4 1006.3 0.2
01/09:30am 5.2 -4.1 5.1 99 0.0 SSW 43 56 23 30 1008.0 1005.8 0.2
01/09:00am 5.0 -4.3 4.9 99 0.0 SSW 43 54 23 29 1007.3 1005.2 30.2
01/08:30am 5.0 -4.9 4.9 99 0.0 SW 46 59 25 32 1006.9 1004.7 29.6
01/08:00am 5.0 -4.5 4.9 99 0.0 SSW 44 57 24 31 1006.3 1004.1 28.8
01/07:40am 5.2 -2.9 5.1 99 0.0 SSW 37 61 20 33 1006.1 1003.9 28.0
01/07:30am 5.3 -2.4 5.2 99 0.0 SSW 35 52 19 28 1006.0 1003.8 27.6
01/07:27am 5.3 -2.8 5.2 99 0.0 SSW 37 57 20 31 1006.0 1003.8 27.2
01/07:00am 5.3 -4.0 5.2 99 0.0 SW 43 56 23 30 1005.1 1002.9 25.6
01/06:30am 5.4 -3.5 5.3 99 0.0 SW 41 59 22 32 1004.8 1002.7 24.8
01/06:12am 5.4 -4.0 5.3 99 0.0 SW 44 67 24 36 1004.3 1002.1 24.8
01/06:00am 5.3 -3.2 5.2 99 0.0 SW 39 52 21 28 1004.4 1002.2 24.8
01/05:30am 5.5 -2.6 5.4 99 0.0 SW 37 57 20 31 1004.2 1002.0 22.0
01/05:14am 5.3 -4.1 5.2 99 0.0 SW 44 65 24 35 1003.6 1001.4 21.6
01/05:00am 5.4 -3.8 5.3 99 0.0 SW 43 56 23 30 1003.7 1001.5 20.6
01/04:30am 5.5 -2.6 5.4 99 0.0 SW 37 52 20 28 1003.7 1001.5 20.6
01/04:25am 5.7 -1.4 5.6 99 0.0 SW 32 50 17 27 1003.7 1001.5 20.6
01/04:00am 5.7 -2.3 5.6 99 0.0 SW 37 46 20 25 1003.8 1001.6 19.6
01/03:30am 5.6 -2.4 5.5 99 0.0 SW 37 48 20 26 1003.8 1001.6 19.6
01/03:00am 6.0 -1.6 5.9 99 0.0 WSW 35 46 19 25 1004.1 1001.9 19.0
01/02:30am 5.9 -2.8 5.8 99 0.0 WSW 41 52 22 28 1004.2 1002.0 18.8
01/02:00am 5.9 -1.3 5.8 99 0.0 W 33 43 18 23 1004.2 1002.0 18.4
01/01:30am 6.4 -0.5 6.3 99 0.0 W 32 41 17 22 1004.3 1002.1 18.4
01/01:00am 6.3 0.1 6.2 99 0.0 W 28 37 15 20 1004.2 1002.0 18.0
01/12:30am 7.0 0.6 6.9 99 0.0 WSW 30 39 16 21 1004.3 1002.1 17.8
01/12:00am 7.4 3.2 7.3 99 0.1 WNW 19 30 10 16 1004.3 1002.1 17.2
 
Date/Time
EDT
Temp
°C
App
Temp
°C
Dew
Point
Rel
Hum
%
Delta-T
°C
Wind Press
QNH
hPa
Press
MSL
hPa
Rain
since 9 am
mm
Dir
 
Spd
km/h
Gust
km/h
Spd
kts
Gust
kts
28/11:30pm 7.3 2.9 7.2 99 0.0 WNW 20 30 11 16 1004.2 1002.0 16.6
28/11:00pm 7.7 3.3 7.6 99 0.1 W 20 32 11 17 1004.3 1002.1 16.2
28/10:30pm 8.1 1.6 8.0 99 0.1 W 32 41 17 22 1003.8 1001.6 16.0
28/10:00pm 8.5 2.1 8.5 100 0.0 WNW 32 43 17 23 1003.7 1001.5 16.0
28/09:30pm 9.6 3.5 9.6 100 0.0 WNW 32 48 17 26 1003.7 1001.5 15.8
28/09:00pm 9.9 3.8 9.9 100 0.0 WNW 32 43 17 23 1003.0 1000.7 14.8
28/08:30pm 10.5 4.6 10.5 100 0.0 WNW 32 46 17 25 1002.2 999.9 13.6
28/08:00pm 10.8 7.8 10.8 100 0.0 NW 17 35 9 19 1002.2 999.9 12.8
28/07:31pm 11.1 6.1 11.1 100 0.0 NW 28 50 15 27 1001.8 999.6 12.8
28/07:30pm 11.2 6.6 11.2 100 0.0 NW 26 48 14 26 1002.1 999.8 12.8
28/07:00pm 11.5 6.7 11.5 100 0.0 NW 28 54 15 29 1001.8 999.6 12.6
28/06:56pm 11.5 6.7 11.5 100 0.0 NW 28 54 15 29 1001.9 999.7 12.6
28/06:53pm 11.5 7.0 11.5 100 0.0 NW 26 54 14 29 1001.7 999.5 12.6
28/06:30pm 11.8 5.0 11.8 100 0.0 NNW 39 57 21 31 1001.5 999.2 12.4
28/06:00pm 11.9 6.8 11.9 100 0.0 NNW 30 50 16 27 1001.6 999.3 11.8
28/05:55pm 11.9 6.8 11.9 100 0.0 NNW 30 50 16 27 1001.6 999.3 11.8
28/05:30pm 11.8 7.0 11.8 100 0.0 NNW 28 43 15 23 1001.7 999.5 11.6
28/05:07pm 11.6 6.4 11.6 100 0.0 NNW 30 52 16 28 1001.9 999.7 10.2
28/05:00pm 11.5 6.3 11.5 100 0.0 NNW 30 44 16 24 1002.1 999.8 10.2
28/04:30pm 11.3 6.0 11.3 100 0.0 N 30 39 16 21 1002.2 999.9 10.2
28/04:00pm 10.9 5.5 10.9 100 0.0 N 30 41 16 22 1002.5 1000.3 10.0
28/03:30pm 10.6 4.2 10.6 100 0.0 N 35 54 19 29 1002.5 1000.3 9.8
28/03:28pm 10.6 4.2 10.6 100 0.0 N 35 54 19 29 1002.5 1000.3 9.8
28/03:00pm 10.2 4.0 10.2 100 0.0 N 33 46 18 25 1002.6 1000.4 9.6
28/02:30pm 9.8 3.1 9.8 100 0.0 N 35 54 19 29 1002.8 1000.6 9.2
28/02:16pm 9.8 3.1 9.8 100 0.0 N 35 56 19 30 1002.7 1000.5 8.6
28/02:00pm 9.3 2.9 9.2 99 0.1 N 33 50 18 27 1003.1 1000.8 8.6
28/01:30pm 8.7 2.3 8.6 99 0.1 N 32 43 17 23 1003.5 1001.3 7.6
28/01:00pm 8.2 0.7 8.1 99 0.1 N 37 57 20 31 1003.8 1001.6 6.0
28/12:39pm 8.2 0.7 8.1 99 0.1 N 37 57 20 31 1003.8 1001.6 4.4
28/12:30pm 7.8 0.2 7.7 99 0.1 N 37 56 20 30 1004.1 1001.9 3.8
28/12:19pm 7.3 -0.4 7.2 99 0.0 N 37 59 20 32 1004.2 1002.0 3.4
28/12:00pm 6.6 -1.2 6.5 99 0.0 N 37 50 20 27 1004.3 1002.1 2.8
28/11:30am 6.5 -2.5 6.2 98 0.1 N 43 50 23 27 1004.4 1002.2 0.4
28/11:00am 6.8 -2.8 6.1 95 0.3 N 46 54 25 29 1004.5 1002.3 0.2
28/10:30am 7.2 -2.5 5.8 91 0.7 N 46 57 25 31 1004.6 1002.4 0.0

Other Formats:

Comma delimited format used in spreadsheet applications
http://www.bom.gov.au/fwo/IDT60801/IDT60801.95952.axf

JavaScript Object Notation format (JSON) in row-major order
http://www.bom.gov.au/fwo/IDT60801/IDT60801.95952.json